createdAt,value
2023-12-09T00:00:33.219Z,101568.28
2023-12-09T00:03:00.761Z,101558.53
2023-12-09T00:05:28.051Z,101548.28
2023-12-09T00:07:55.333Z,101566.00
2023-12-09T00:10:22.556Z,101549.97
2023-12-09T00:12:49.876Z,101551.41
2023-12-09T00:15:17.601Z,101541.44
2023-12-09T00:17:44.991Z,101564.59
2023-12-09T00:20:12.857Z,101554.25
2023-12-09T00:22:40.474Z,101534.13
2023-12-09T00:25:08.328Z,101554.25
2023-12-09T00:27:36.339Z,101556.38
2023-12-09T00:30:04.032Z,101552.34
2023-12-09T00:32:32.123Z,101535.25
2023-12-09T00:34:59.713Z,101550.22
2023-12-09T00:37:26.959Z,101524.00
2023-12-09T00:39:54.407Z,101531.59
2023-12-09T00:42:21.677Z,101535.44
2023-12-09T00:44:49.739Z,101545.47
2023-12-09T00:47:17.122Z,101522.91
2023-12-09T00:49:44.603Z,101540.69
2023-12-09T00:52:13.094Z,101548.25
2023-12-09T00:54:40.618Z,101533.50
2023-12-09T00:57:08.132Z,101537.34
2023-12-09T00:59:35.828Z,101526.63
2023-12-09T01:02:03.157Z,101537.53
2023-12-09T01:04:30.589Z,101529.16
2023-12-09T01:06:58.564Z,101525.13
2023-12-09T01:09:25.955Z,101507.19
2023-12-09T01:11:54.781Z,101535.47
2023-12-09T01:14:22.389Z,101533.50
2023-12-09T01:16:49.590Z,101531.50
2023-12-09T01:19:16.942Z,101531.09
2023-12-09T01:21:44.146Z,101545.00
2023-12-09T01:24:11.441Z,101514.31
2023-12-09T01:26:38.726Z,101528.50
2023-12-09T01:29:05.986Z,101532.94
2023-12-09T01:31:33.440Z,101526.91
2023-12-09T01:34:01.257Z,101505.75
2023-12-09T01:36:28.606Z,101510.81
2023-12-09T01:38:56.182Z,101525.66
2023-12-09T01:41:23.493Z,101517.63
2023-12-09T01:43:51.755Z,101523.16
2023-12-09T01:46:21.032Z,101518.91
2023-12-09T01:48:49.522Z,101501.44
2023-12-09T01:51:18.907Z,101493.59
2023-12-09T01:53:46.380Z,101505.16
2023-12-09T01:56:15.816Z,101517.63
2023-12-09T01:58:58.813Z,101521.56
2023-12-09T02:01:26.957Z,101501.34
2023-12-09T02:03:55.372Z,101504.88
2023-12-09T02:06:22.689Z,101514.09
2023-12-09T02:08:50.216Z,101517.19
2023-12-09T02:15:01.195Z,101487.03
2023-12-09T02:17:38.738Z,101500.66
2023-12-09T02:20:08.603Z,101503.19
2023-12-09T02:22:35.856Z,101502.28
2023-12-09T02:25:03.219Z,101485.31
2023-12-09T02:27:43.612Z,101483.88
2023-12-09T02:30:27.823Z,101486.47
2023-12-09T02:32:57.528Z,101501.38
2023-12-09T02:35:27.122Z,101489.50
2023-12-09T02:37:57.017Z,101464.44
2023-12-09T02:40:26.072Z,101473.09
2023-12-09T02:42:53.672Z,101463.13
2023-12-09T02:45:21.220Z,101465.19
2023-12-09T02:47:51.903Z,101479.34
2023-12-09T02:50:19.307Z,101483.31
2023-12-09T02:52:46.620Z,101457.66
2023-12-09T02:55:14.003Z,101490.41
2023-12-09T02:57:41.415Z,101472.09
2023-12-09T03:00:09.198Z,101459.44
2023-12-09T03:02:36.573Z,101470.00
2023-12-09T03:05:04.132Z,101466.34
2023-12-09T03:07:31.423Z,101462.00
2023-12-09T03:09:58.811Z,101465.53
2023-12-09T03:12:26.529Z,101454.41
2023-12-09T03:14:54.466Z,101464.69
2023-12-09T03:17:22.998Z,101462.75
2023-12-09T03:19:50.387Z,101458.06
2023-12-09T03:22:17.835Z,101439.63
2023-12-09T03:24:45.192Z,101458.25
2023-12-09T03:27:12.590Z,101454.41
2023-12-09T03:29:39.961Z,101472.69
2023-12-09T03:32:07.381Z,101475.28
2023-12-09T03:34:34.709Z,101445.63
2023-12-09T03:37:02.301Z,101465.19
2023-12-09T03:39:32.615Z,101454.88
2023-12-09T03:42:00.070Z,101461.97
2023-12-09T03:44:27.369Z,101454.25
2023-12-09T03:46:54.647Z,101464.84
2023-12-09T03:49:22.625Z,101444.59
2023-12-09T03:51:50.086Z,101465.84
2023-12-09T03:54:17.582Z,101441.28
2023-12-09T03:56:46.034Z,101456.06
2023-12-09T03:59:13.379Z,101457.97
2023-12-09T04:01:53.165Z,101448.25
2023-12-09T04:04:20.541Z,101462.47
2023-12-09T04:06:47.906Z,101467.63
2023-12-09T04:09:15.251Z,101466.19
2023-12-09T04:11:43.004Z,101464.75
2023-12-09T04:14:10.340Z,101470.53
2023-12-09T04:16:37.607Z,101444.84
2023-12-09T04:19:06.640Z,101471.50
2023-12-09T04:21:35.078Z,101475.78
2023-12-09T04:24:03.026Z,101465.84
2023-12-09T04:26:30.292Z,101475.66
2023-12-09T04:29:00.085Z,101462.31
2023-12-09T04:31:27.719Z,101471.50
2023-12-09T04:33:55.094Z,101463.66
2023-12-09T04:36:22.504Z,101453.84
2023-12-09T04:38:49.808Z,101469.91
2023-12-09T04:41:17.147Z,101484.66
2023-12-09T04:43:44.321Z,101478.69
2023-12-09T04:46:11.581Z,101470.88
2023-12-09T04:48:39.039Z,101480.31
2023-12-09T04:51:06.724Z,101485.31
2023-12-09T04:53:34.220Z,101468.94
2023-12-09T04:56:01.578Z,101485.47
2023-12-09T04:58:28.857Z,101463.63
2023-12-09T05:00:56.478Z,101477.72
2023-12-09T05:03:24.373Z,101461.56
2023-12-09T05:05:51.901Z,101468.03
2023-12-09T05:08:19.326Z,101462.69
2023-12-09T05:10:47.814Z,101465.91
2023-12-09T05:13:15.267Z,101479.84
2023-12-09T05:15:42.849Z,101471.84
2023-12-09T05:18:10.479Z,101483.41
2023-12-09T05:20:38.158Z,101467.66
2023-12-09T05:23:08.012Z,101474.88
2023-12-09T05:25:36.826Z,101474.44
2023-12-09T05:28:04.419Z,101472.00
2023-12-09T05:30:33.039Z,101473.09
2023-12-09T05:33:01.014Z,101467.97
2023-12-09T05:35:29.039Z,101483.69
2023-12-09T05:38:01.044Z,101491.50
2023-12-09T05:40:28.750Z,101484.94
2023-12-09T05:42:56.282Z,101472.75
2023-12-09T05:45:32.111Z,101489.09
2023-12-09T05:47:59.988Z,101492.44
2023-12-09T05:50:27.628Z,101475.75
2023-12-09T05:52:59.104Z,101479.00
2023-12-09T05:55:27.954Z,101488.72
2023-12-09T05:57:58.835Z,101462.13
2023-12-09T06:07:34.656Z,101501.19
2023-12-09T06:10:18.830Z,101484.50
2023-12-09T06:12:59.379Z,101496.28
2023-12-09T06:24:45.116Z,101480.22
2023-12-09T06:27:22.571Z,101470.16
2023-12-09T06:35:25.856Z,101496.09
2023-12-09T06:49:49.212Z,101474.53
2023-12-09T06:52:17.765Z,101515.75
2023-12-09T06:54:46.744Z,101498.84
2023-12-09T06:57:14.025Z,101500.22
2023-12-09T06:59:55.456Z,101504.59
2023-12-09T07:02:22.901Z,101477.94
2023-12-09T07:04:50.185Z,101503.00
2023-12-09T07:07:21.926Z,101505.56
2023-12-09T07:09:53.175Z,101515.09
2023-12-09T07:12:20.803Z,101502.50
2023-12-09T07:15:09.857Z,101497.34
2023-12-09T07:18:06.066Z,101512.38
2023-12-09T07:20:34.603Z,101507.44
2023-12-09T07:23:22.612Z,101513.66
2023-12-09T07:25:50.219Z,101493.66
2023-12-09T07:28:17.893Z,101500.50
2023-12-09T07:30:47.616Z,101499.41
2023-12-09T07:33:20.232Z,101507.72
2023-12-09T07:35:47.974Z,101501.22
2023-12-09T07:38:15.478Z,101474.91
2023-12-09T07:40:55.633Z,101504.16
2023-12-09T07:43:26.098Z,101494.03
2023-12-09T07:45:54.088Z,101495.25
2023-12-09T07:48:25.637Z,101479.69
2023-12-09T07:57:56.642Z,101500.16
2023-12-09T08:00:28.690Z,101495.72
2023-12-09T08:03:10.494Z,101482.06
2023-12-09T08:05:43.519Z,101503.47
2023-12-09T08:11:59.063Z,101499.13
2023-12-09T08:14:35.511Z,101483.13
2023-12-09T08:24:05.561Z,101457.56
2023-12-09T08:49:50.884Z,101442.72
2023-12-09T08:52:20.894Z,101447.75
2023-12-09T09:23:23.066Z,101444.22
2023-12-09T09:36:25.322Z,101407.75
2023-12-09T09:38:58.394Z,101401.09
2023-12-09T09:55:53.315Z,101408.84
2023-12-09T10:02:20.022Z,101422.16
2023-12-09T10:09:09.070Z,101419.38
2023-12-09T10:29:33.770Z,101375.75
2023-12-09T10:32:10.668Z,101380.56
2023-12-09T10:35:13.780Z,101403.16
2023-12-09T11:20:57.141Z,101406.69
2023-12-09T12:43:02.030Z,101354.47
2023-12-09T13:09:32.382Z,101321.28
2023-12-09T13:12:00.149Z,101353.53
2023-12-09T13:14:34.893Z,101323.84
2023-12-09T13:17:04.585Z,101313.88
2023-12-09T13:19:32.949Z,101333.16
2023-12-09T13:22:02.876Z,101314.84
2023-12-09T13:24:30.795Z,101301.47
2023-12-09T13:27:09.193Z,101324.25
2023-12-09T13:32:56.498Z,101334.03
2023-12-09T13:35:27.584Z,101312.31
2023-12-09T13:38:43.503Z,101326.13
2023-12-09T13:44:16.948Z,101296.72
2023-12-09T13:47:32.310Z,101292.28
2023-12-09T13:53:57.073Z,101317.16
2023-12-09T13:59:40.314Z,101284.25
2023-12-09T14:06:32.932Z,101305.09
2023-12-09T14:09:03.542Z,101309.31
2023-12-09T14:14:37.440Z,101280.44
2023-12-09T14:17:21.798Z,101295.50
2023-12-09T14:19:57.731Z,101307.53
2023-12-09T14:22:30.536Z,101285.28
2023-12-09T14:25:06.916Z,101308.59
2023-12-09T14:27:55.087Z,101281.44
2023-12-09T14:36:10.360Z,101274.97
2023-12-09T14:38:44.078Z,101278.41
2023-12-09T14:41:14.260Z,101266.91
2023-12-09T14:48:14.253Z,101293.06
2023-12-09T14:54:12.139Z,101252.78
2023-12-09T14:59:37.477Z,101287.06
2023-12-09T15:02:46.036Z,101295.03
2023-12-09T15:08:09.697Z,101285.72
2023-12-09T15:10:49.817Z,101278.53
2023-12-09T15:13:40.629Z,101299.28
2023-12-09T15:16:28.257Z,101271.97
2023-12-09T15:19:11.226Z,101305.63
2023-12-09T15:22:17.213Z,101279.16
2023-12-09T15:24:55.286Z,101265.59
2023-12-09T15:27:28.649Z,101275.16
2023-12-09T15:30:16.638Z,101270.31
2023-12-09T15:33:07.603Z,101272.19
2023-12-09T15:35:43.996Z,101287.00
2023-12-09T15:38:22.186Z,101286.91
2023-12-09T15:40:53.503Z,101288.41
2023-12-09T15:43:50.226Z,101274.88
2023-12-09T15:46:20.109Z,101296.63
2023-12-09T15:48:52.567Z,101286.50
2023-12-09T15:51:28.436Z,101261.00
2023-12-09T15:54:05.956Z,101269.06
2023-12-09T15:56:39.605Z,101281.44
2023-12-09T15:59:20.383Z,101266.72
2023-12-09T16:02:06.738Z,101281.13
2023-12-09T16:07:57.356Z,101277.97
2023-12-09T16:13:42.858Z,101236.22
2023-12-09T16:16:15.592Z,101240.50
2023-12-09T16:19:06.955Z,101237.88
2023-12-09T16:21:40.080Z,101263.91
2023-12-09T16:24:17.413Z,101262.72
2023-12-09T16:26:57.534Z,101261.63
2023-12-09T16:29:39.551Z,101234.53
2023-12-09T16:32:17.889Z,101244.63
2023-12-09T16:38:28.499Z,101227.25
2023-12-09T16:41:00.877Z,101234.28
2023-12-09T16:43:35.600Z,101236.13
2023-12-09T16:46:03.316Z,101219.81
2023-12-09T16:52:13.870Z,101238.16
2023-12-09T16:54:41.804Z,101251.44
2023-12-09T16:57:13.684Z,101243.88
2023-12-09T16:59:41.602Z,101213.41
